Kiev/Boryspil International Airport

Airport
ICAO code: 
UKBB
IATA Code: 
KBP
Summary
ICAO Region: 
EUR
Territory: 
Location: 
Boryspil,
Serving: 
Kiev
Elevation: 
427 ft
Coordinates: 
Aerial View: 
50° 20' 42" N, 30° 53' 36" E
Metar
Observation
UKBB 290230Z 13005MPS 7000 BKN002 OVC009 08/08 Q0997 NOSIG
Station
Boryspil
Date/Time
2021-11-29 02:30:00
Wind direction
130°
Lowest cloud amount
broken clouds
Temperature
8°C
Dew point
8°C
Humidity
100%
QNH
997 hPa
Weather condition
n/a

Description

International airport serving Ukrainian capital city.

Climatology

Humid Continental climate (Köppen climate classification Dfb) - Variable weather patterns and a large seasonal temperature variance. Summers are often warm and humid with frequent thunderstorms and winters can be very cold with frequent snowfall and persistent snow cover.

Runways

Designator Length Width Surface Rops
18R/36L 3500 63 CON Yes/Yes
18L/36R 4000 60 CON Yes/Yes
Airport map: 
Aerial View: 

SKYbrary Partners:

Safety knowledge contributed by: